Time;durP1;ratioP1;P1;durP2;ratioP2;P2;SDS_P1;SDS_P2;PMS_P1;PMS_P2;Temp;Humidity;BMP_temperature;BMP_pressure;BME280_temperature;BME280_humidity;BME280_pressure;Samples;Min_cycle;Max_cycle;Signal;HPM_P1;HPM_P2
2022/04/13 00:00:07;;;;;;;7.83;5.53;;;;;;;16.12;46.34;100544.31;693046;28;1237;-79
2022/04/13 00:00:30;;;;;;;7.18;5.03;;;;;;;16.09;46.45;100533.81;690418;28;984;-79
2022/04/13 00:00:51;;;;;;;8.27;4.80;;;;;;;16.14;46.50;100545.22;693240;28;1212;-79
2022/04/13 00:01:11;;;;;;;9.77;5.20;;;;;;;16.13;46.44;100540.84;692920;28;1140;-79
2022/04/13 00:01:32;;;;;;;8.93;5.30;;;;;;;16.13;46.37;100539.94;683273;28;1249;-80
2022/04/13 00:01:54;;;;;;;6.93;5.10;;;;;;;16.12;46.40;100539.06;690652;28;763;-79
2022/04/13 00:02:14;;;;;;;5.70;5.07;;;;;;;16.11;46.43;100531.19;688674;28;1273;-80
2022/04/13 00:02:35;;;;;;;6.87;5.47;;;;;;;16.15;46.53;100549.59;687581;28;1123;-79
2022/04/13 00:02:56;;;;;;;8.55;5.60;;;;;;;16.14;46.51;100541.69;687723;28;1304;-79
2022/04/13 00:03:22;;;;;;;8.98;5.40;;;;;;;16.17;46.53;100542.59;692354;28;1380;-79
2022/04/13 00:03:43;;;;;;;8.48;4.95;;;;;;;16.14;46.48;100537.31;684938;28;1422;-80
2022/04/13 00:04:04;;;;;;;7.20;4.80;;;;;;;16.15;46.55;100544.34;690579;28;1261;-79
2022/04/13 00:04:25;;;;;;;6.60;4.85;;;;;;;16.11;46.46;100537.31;693291;28;1368;-79
2022/04/13 00:04:45;;;;;;;5.45;4.80;;;;;;;16.11;46.49;100536.44;693225;28;1047;-80
2022/04/13 00:05:07;;;;;;;6.97;4.90;;;;;;;16.15;46.40;100538.19;688171;28;1131;-79
2022/04/13 00:05:28;;;;;;;8.75;5.22;;;;;;;16.18;46.40;100548.75;687751;28;1348;-79
2022/04/13 00:05:49;;;;;;;9.80;5.20;;;;;;;16.09;46.21;100533.81;685753;28;1279;-79
2022/04/13 00:06:09;;;;;;;9.20;5.10;;;;;;;16.12;46.35;100533.78;691445;28;1178;-79
2022/04/13 00:06:30;;;;;;;9.65;4.70;;;;;;;16.15;46.03;100539.06;687770;28;1090;-79
2022/04/13 00:06:52;;;;;;;8.15;4.93;;;;;;;16.13;46.28;100535.56;693306;28;775;-79
2022/04/13 00:07:13;;;;;;;8.85;5.07;;;;;;;16.13;46.16;100546.09;693053;28;1252;-79
2022/04/13 00:07:41;;;;;;;7.10;5.10;;;;;;;16.14;46.32;100537.31;691612;28;1360;-79
2022/04/13 00:08:06;;;;;;;10.93;5.50;;;;;;;16.11;46.13;100542.56;687900;28;843;-80
2022/04/13 00:08:27;;;;;;;10.60;5.90;;;;;;;16.13;46.36;100535.56;690256;28;1331;-79
2022/04/13 00:08:50;;;;;;;6.40;5.40;;;;;;;16.16;46.29;100542.56;691564;28;1286;-79
2022/04/13 00:09:11;;;;;;;6.53;5.80;;;;;;;16.10;46.38;100540.81;695761;28;1491;-79
2022/04/13 00:09:31;;;;;;;6.68;5.97;;;;;;;16.13;46.36;100539.94;695353;28;991;-79
2022/04/13 00:09:52;;;;;;;7.22;6.10;;;;;;;16.13;46.64;100540.84;695660;28;1066;-79
2022/04/13 00:10:13;;;;;;;7.47;6.00;;;;;;;16.12;46.56;100543.47;690741;28;1705;-78
2022/04/13 00:10:36;;;;;;;8.80;6.20;;;;;;;16.12;46.61;100544.31;687790;28;1115;-79
2022/04/13 00:10:57;;;;;;;8.60;6.10;;;;;;;16.08;46.55;100531.16;685162;28;890;-79
2022/04/13 00:11:18;;;;;;;8.13;5.82;;;;;;;16.14;46.45;100542.59;690365;28;1117;-79
2022/04/13 00:11:38;;;;;;;7.50;5.30;;;;;;;16.10;46.46;100540.81;692651;28;1119;-79
2022/04/13 00:12:24;;;;;;;8.00;5.10;;;;;;;16.13;46.52;100547.84;687805;28;760;-79
2022/04/13 00:12:45;;;;;;;8.00;5.32;;;;;;;16.10;46.61;100545.22;687725;28;1252;-79
2022/04/13 00:13:06;;;;;;;7.20;5.40;;;;;;;16.11;46.63;100545.19;690849;28;1248;-79
2022/04/13 00:13:27;;;;;;;7.10;5.53;;;;;;;16.01;46.95;100541.69;693212;28;1099;-81
2022/04/13 00:13:49;;;;;;;8.80;5.45;;;;;;;15.97;46.63;100533.81;693135;28;1345;-79
2022/04/13 00:14:09;;;;;;;8.30;5.57;;;;;;;16.04;46.76;100546.06;690264;28;1118;-79
2022/04/13 00:14:31;;;;;;;7.27;5.27;;;;;;;16.08;46.74;100561.00;688597;28;1595;-79
2022/04/13 00:14:51;;;;;;;6.95;5.40;;;;;;;16.03;46.50;100542.56;687927;28;843;-80
2022/04/13 00:15:12;;;;;;;8.97;5.50;;;;;;;16.00;46.78;100531.16;683596;28;1191;-79
2022/04/13 00:15:37;;;;;;;9.40;5.60;;;;;;;16.03;46.74;100544.31;682211;29;1562;-79
2022/04/13 00:15:58;;;;;;;7.47;5.25;;;;;;;16.07;46.72;100548.72;687700;28;1228;-79
2022/04/13 00:16:18;;;;;;;6.78;5.20;;;;;;;16.07;46.68;100550.47;684957;28;1258;-79
2022/04/13 00:16:39;;;;;;;8.40;5.13;;;;;;;16.07;46.78;100550.47;684594;28;1293;-80
2022/04/13 00:17:00;;;;;;;8.70;5.32;;;;;;;16.04;46.69;100544.31;685241;28;875;-79
2022/04/13 00:17:22;;;;;;;8.15;5.10;;;;;;;16.08;46.75;100550.47;687470;28;1983;-80
2022/04/13 00:17:42;;;;;;;9.98;5.53;;;;;;;16.07;46.69;100546.09;690510;28;784;-79
2022/04/13 00:18:07;;;;;;;9.95;5.30;;;;;;;16.04;46.78;100541.69;695674;28;1297;-80
2022/04/13 00:18:28;;;;;;;7.57;5.20;;;;;;;16.09;46.61;100540.84;690773;28;1572;-80
2022/04/13 00:18:49;;;;;;;6.63;5.20;;;;;;;16.02;46.56;100535.56;687281;28;1388;-79
2022/04/13 00:19:09;;;;;;;7.33;5.20;;;;;;;15.98;46.79;100538.19;690297;28;1251;-79
2022/04/13 00:19:30;;;;;;;7.25;5.05;;;;;;;16.00;46.78;100541.69;689871;28;1170;-79
2022/04/13 00:19:50;;;;;;;6.50;4.77;;;;;;;16.01;46.86;100546.06;690248;28;1214;-79
2022/04/13 00:20:11;;;;;;;5.30;4.80;;;;;;;15.96;46.89;100548.69;687638;28;1054;-79
2022/04/13 00:20:32;;;;;;;5.72;4.90;;;;;;;15.95;46.88;100532.91;685117;28;1084;-80
2022/04/13 00:20:53;;;;;;;6.97;4.78;;;;;;;15.98;46.66;100553.97;687458;28;1292;-79
2022/04/13 00:21:13;;;;;;;8.38;4.85;;;;;;;15.93;46.69;100540.81;687609;28;1182;-79
2022/04/13 00:21:34;;;;;;;9.07;5.27;;;;;;;15.94;46.72;100545.19;690169;28;1428;-79
2022/04/13 00:22:13;;;;;;;8.38;5.55;;;;;;;15.92;46.86;100549.56;690457;28;1170;-79
2022/04/13 00:22:33;;;;;;;6.30;5.35;;;;;;;15.90;46.96;100543.41;687736;28;1416;-79
2022/04/13 00:22:54;;;;;;;5.80;5.10;;;;;;;15.92;46.73;100546.06;689783;28;1107;-79
2022/04/13 00:23:14;;;;;;;6.53;5.20;;;;;;;15.98;46.69;100551.34;686563;28;1345;-79
2022/04/13 00:23:35;;;;;;;6.77;5.20;;;;;;;15.90;46.61;100538.16;687649;28;1127;-79
2022/04/13 00:23:58;;;;;;;6.47;5.00;;;;;;;15.87;46.39;100544.28;687805;28;1373;-80
2022/04/13 00:24:19;;;;;;;5.75;4.70;;;;;;;15.78;46.76;100536.38;687045;28;1472;-79
2022/04/13 00:24:39;;;;;;;5.90;4.63;;;;;;;15.80;46.73;100539.88;687797;28;1045;-79
2022/04/13 00:25:00;;;;;;;6.80;5.13;;;;;;;15.78;47.05;100546.91;690519;28;1215;-79
2022/04/13 00:25:20;;;;;;;7.30;5.50;;;;;;;15.73;46.85;100540.75;690249;28;1170;-79
2022/04/13 00:25:43;;;;;;;8.73;5.50;;;;;;;15.69;47.11;100534.59;684585;28;1103;-80
2022/04/13 00:26:03;;;;;;;8.50;5.05;;;;;;;15.73;47.00;100546.03;687987;28;1262;-80
2022/04/13 00:26:24;;;;;;;9.43;5.00;;;;;;;15.75;47.20;100552.16;693106;28;1193;-80
2022/04/13 00:26:45;;;;;;;8.60;5.17;;;;;;;15.68;47.32;100542.50;693224;28;886;-79
2022/04/13 00:27:05;;;;;;;9.35;5.40;;;;;;;15.65;47.33;100537.19;688300;28;1143;-80
2022/04/13 00:27:26;;;;;;;8.47;5.00;;;;;;;15.61;47.59;100533.72;682355;29;1280;-79
2022/04/13 00:27:46;;;;;;;7.90;4.80;;;;;;;15.65;47.39;100539.81;684368;28;1333;-80
2022/04/13 00:28:09;;;;;;;8.30;5.20;;;;;;;15.64;47.38;100544.22;685208;28;1299;-79
2022/04/13 00:28:30;;;;;;;8.02;5.30;;;;;;;15.58;47.39;100537.19;687604;28;1156;-80
2022/04/13 00:28:51;;;;;;;8.67;5.57;;;;;;;15.56;47.51;100533.66;687785;28;1302;-80
2022/04/13 00:29:11;;;;;;;7.30;5.40;;;;;;;15.55;47.58;100537.16;690031;28;1084;-79
2022/04/13 00:29:40;;;;;;;6.90;5.30;;;;;;;15.47;47.44;100533.63;691569;28;1583;-79
2022/04/13 00:30:01;;;;;;;5.90;5.00;;;;;;;15.51;47.80;100551.19;690443;28;899;-80
2022/04/13 00:30:22;;;;;;;6.40;5.40;;;;;;;15.48;47.81;100551.16;690107;28;1349;-79
2022/04/13 00:30:42;;;;;;;7.50;5.30;;;;;;;15.43;47.54;100547.66;682375;29;1184;-79
2022/04/13 00:31:03;;;;;;;8.03;5.10;;;;;;;15.42;47.89;100549.41;687592;28;1406;-79
2022/04/13 00:31:24;;;;;;;7.07;4.82;;;;;;;15.38;47.89;100538.88;690314;28;1187;-79
2022/04/13 00:31:44;;;;;;;5.40;4.87;;;;;;;15.38;47.75;100533.59;690378;28;1151;-79
2022/04/13 00:32:06;;;;;;;5.37;4.87;;;;;;;15.44;47.86;100552.91;685148;28;1211;-79
2022/04/13 00:32:27;;;;;;;5.38;4.80;;;;;;;15.37;48.08;100537.09;690421;28;1100;-80
2022/04/13 00:32:48;;;;;;;5.68;5.07;;;;;;;15.44;47.88;100557.31;690452;28;934;-80
2022/04/13 00:33:08;;;;;;;6.23;5.33;;;;;;;15.33;48.17;100542.38;690365;28;1161;-79
2022/04/13 00:33:29;;;;;;;7.28;5.57;;;;;;;15.39;48.27;100545.88;687714;28;1015;-79
2022/04/13 00:33:50;;;;;;;7.72;5.60;;;;;;;15.40;48.24;100547.63;689814;28;1821;-80
2022/04/13 00:34:11;;;;;;;8.68;5.45;;;;;;;15.39;48.36;100551.13;692033;28;1169;-79
2022/04/13 00:34:34;;;;;;;8.20;5.70;;;;;;;15.35;48.42;100551.13;685951;28;2412;-80
2022/04/13 00:34:57;;;;;;;9.25;5.30;;;;;;;15.26;48.42;100540.59;693323;28;2654;-79
2022/04/13 00:35:17;;;;;;;7.72;5.13;;;;;;;15.28;48.69;100546.72;692788;28;1272;-80
2022/04/13 00:35:38;;;;;;;7.80;5.20;;;;;;;15.28;48.45;100543.19;692877;28;961;-80
2022/04/13 00:35:59;;;;;;;7.78;5.40;;;;;;;15.21;48.62;100537.94;684583;28;1192;-79
2022/04/13 00:36:20;;;;;;;8.70;5.30;;;;;;;15.25;48.63;100546.72;687484;28;1209;-79
2022/04/13 00:36:40;;;;;;;8.90;5.10;;;;;;;15.21;48.77;100537.94;689766;28;1276;-79
2022/04/13 00:37:01;;;;;;;9.33;5.30;;;;;;;15.21;48.77;100543.19;687508;28;1149;-79
2022/04/13 00:37:21;;;;;;;9.02;5.35;;;;;;;15.20;48.92;100540.50;690084;28;1916;-80
2022/04/13 00:37:42;;;;;;;8.65;5.45;;;;;;;15.25;48.82;100551.06;685057;28;1274;-79
2022/04/13 00:38:04;;;;;;;7.38;5.50;;;;;;;15.24;48.77;100546.69;685114;28;1151;-79
2022/04/13 00:38:24;;;;;;;9.32;5.65;;;;;;;15.23;49.02;100551.06;687232;28;1357;-79
2022/04/13 00:38:45;;;;;;;8.87;5.30;;;;;;;15.22;48.96;100549.31;686301;28;1778;-79
2022/04/13 00:39:05;;;;;;;7.78;4.90;;;;;;;15.19;48.94;100550.13;685052;28;1140;-79
2022/04/13 00:39:26;;;;;;;7.00;4.97;;;;;;;15.20;48.84;100551.03;687625;28;964;-79
2022/04/13 00:39:47;;;;;;;9.80;5.22;;;;;;;15.14;48.82;100545.72;692637;28;854;-79
2022/04/13 00:40:09;;;;;;;9.40;5.35;;;;;;;15.19;49.20;100554.53;692143;28;1163;-79
2022/04/13 00:40:29;;;;;;;9.23;5.40;;;;;;;15.11;48.79;100546.59;682286;29;1090;-79
2022/04/13 00:40:50;;;;;;;5.80;5.10;;;;;;;15.17;49.18;100556.25;687756;28;756;-79
2022/04/13 00:41:12;;;;;;;6.20;5.32;;;;;;;15.14;48.84;100548.34;686029;28;1283;-79
2022/04/13 00:41:32;;;;;;;5.97;5.20;;;;;;;15.08;48.98;100543.94;687521;28;1403;-79
2022/04/13 00:42:03;;;;;;;7.07;5.20;;;;;;;15.13;48.82;100554.47;687677;28;1683;-80
2022/04/13 00:42:24;;;;;;;7.20;5.07;;;;;;;15.05;49.09;100552.69;684452;28;2020;-79
2022/04/13 00:42:44;;;;;;;7.77;5.30;;;;;;;15.08;48.98;100562.34;692472;28;1132;-80
2022/04/13 00:43:06;;;;;;;9.68;5.38;;;;;;;15.06;49.02;100543.94;688094;28;1012;-78
2022/04/13 00:43:26;;;;;;;11.18;5.10;;;;;;;15.01;48.81;100543.00;695847;28;1106;-79
2022/04/13 00:44:01;;;;;;;9.80;5.10;;;;;;;15.07;49.03;100558.81;690379;28;1701;-79
2022/04/13 00:44:22;;;;;;;6.95;4.88;;;;;;;15.01;49.16;100550.03;690432;28;1305;-80
2022/04/13 00:44:42;;;;;;;5.75;4.57;;;;;;;15.01;49.22;100558.78;690492;28;729;-80
2022/04/13 00:45:03;;;;;;;7.13;5.00;;;;;;;14.95;49.29;100545.63;687797;28;1270;-79
2022/04/13 00:45:24;;;;;;;6.60;5.10;;;;;;;15.01;49.49;100556.16;687671;28;903;-79
2022/04/13 00:45:46;;;;;;;7.00;5.30;;;;;;;14.86;49.56;100556.09;685079;28;1228;-79
2022/04/13 00:46:06;;;;;;;6.00;5.20;;;;;;;14.76;49.71;100550.75;685995;28;1159;-79
2022/04/13 00:46:27;;;;;;;6.27;5.30;;;;;;;14.95;49.49;100561.41;694475;28;1036;-79
2022/04/13 00:46:48;;;;;;;6.37;5.00;;;;;;;15.04;49.27;100540.44;692823;28;1670;-79
2022/04/13 00:47:08;;;;;;;6.93;4.90;;;;;;;15.20;49.00;100556.28;687403;28;1208;-79
2022/04/13 00:47:29;;;;;;;7.07;4.87;;;;;;;15.16;49.09;100546.59;687596;28;1085;-79
2022/04/13 00:47:50;;;;;;;7.07;4.95;;;;;;;15.00;49.09;100543.88;690418;28;1203;-80
2022/04/13 00:48:19;;;;;;;8.13;5.20;;;;;;;14.86;49.73;100551.69;693659;28;1189;-79
2022/04/13 00:48:42;;;;;;;7.65;5.43;;;;;;;14.75;49.77;100558.63;690367;28;1080;-80
2022/04/13 00:49:04;;;;;;;6.35;5.40;;;;;;;14.70;49.75;100560.34;689648;28;2509;-78
2022/04/13 00:49:25;;;;;;;7.68;5.55;;;;;;;14.56;50.29;100552.34;692196;28;2350;-78
2022/04/13 00:49:46;;;;;;;7.47;5.25;;;;;;;14.49;50.26;100547.03;692450;28;2215;-79
2022/04/13 00:50:08;;;;;;;7.63;5.27;;;;;;;14.45;50.54;100550.50;695476;28;1237;-79
2022/04/13 00:50:29;;;;;;;7.00;5.40;;;;;;;14.48;50.79;100561.06;692886;28;1298;-79
2022/04/13 00:50:49;;;;;;;5.87;5.27;;;;;;;14.42;50.65;100553.13;687641;28;1167;-79
2022/04/13 00:51:10;;;;;;;6.22;5.45;;;;;;;14.45;50.74;100561.00;690151;28;1170;-79
2022/04/13 00:51:31;;;;;;;6.90;5.10;;;;;;;14.42;50.93;100566.25;690266;28;1484;-79
2022/04/13 00:51:53;;;;;;;8.02;5.25;;;;;;;14.40;51.05;100560.09;690249;28;798;-79
2022/04/13 00:52:27;;;;;;;8.27;5.30;;;;;;;14.43;51.25;100568.00;687576;28;1185;-80
2022/04/13 00:52:49;;;;;;;7.85;5.00;;;;;;;14.42;51.31;100554.84;684890;28;1066;-79
2022/04/13 00:53:12;;;;;;;8.07;4.95;;;;;;;14.41;51.16;100548.72;691004;28;1370;-79
2022/04/13 00:53:35;;;;;;;8.38;5.00;;;;;;;14.49;50.90;100552.31;692729;28;997;-79
2022/04/13 00:53:57;;;;;;;8.98;5.30;;;;;;;14.50;51.07;100561.06;687529;28;1257;-80
2022/04/13 00:54:24;;;;;;;7.25;4.90;;;;;;;14.56;50.99;100565.50;684836;28;1252;-79
2022/04/13 00:54:48;;;;;;;6.13;4.80;;;;;;;14.50;50.93;100558.44;682217;29;1417;-80
2022/04/13 00:55:10;;;;;;;7.32;5.10;;;;;;;14.47;50.77;100551.41;688457;28;1102;-79
2022/04/13 00:55:37;;;;;;;6.63;5.20;;;;;;;14.49;51.08;100551.41;690199;28;1505;-80
2022/04/13 00:56:02;;;;;;;7.63;5.43;;;;;;;14.52;51.10;100564.59;690453;28;898;-79
2022/04/13 00:56:25;;;;;;;9.40;5.40;;;;;;;14.46;50.90;100554.91;687496;28;1431;-80
2022/04/13 00:56:50;;;;;;;8.57;5.05;;;;;;;14.47;51.10;100558.41;688414;28;1468;-79
2022/04/13 00:57:11;;;;;;;6.40;5.15;;;;;;;14.54;50.89;100570.72;690375;28;1080;-79
2022/04/13 00:57:34;;;;;;;8.45;5.38;;;;;;;14.47;50.86;100561.91;687630;28;1920;-80
2022/04/13 00:57:58;;;;;;;8.77;5.40;;;;;;;14.52;50.84;100561.97;687772;28;810;-80
2022/04/13 00:58:22;;;;;;;5.88;5.00;;;;;;;14.52;51.10;100568.06;687752;28;1227;-79
2022/04/13 00:58:43;;;;;;;7.07;5.00;;;;;;;14.48;51.00;100562.78;691976;28;1379;-79
2022/04/13 00:59:13;;;;;;;6.75;4.80;;;;;;;14.49;50.98;100565.44;689680;28;1299;-79
2022/04/13 00:59:37;;;;;;;6.07;4.90;;;;;;;14.44;50.99;100556.63;689828;28;1672;-79
2022/04/13 01:00:00;;;;;;;6.00;4.90;;;;;;;14.49;50.96;100568.06;690308;28;1436;-80
2022/04/13 01:00:20;;;;;;;5.97;5.20;;;;;;;14.45;50.99;100563.63;695417;28;1250;-79
2022/04/13 01:00:48;;;;;;;6.10;5.22;;;;;;;14.49;50.95;100570.69;693145;28;1196;-79
2022/04/13 01:01:08;;;;;;;6.70;5.38;;;;;;;14.46;51.16;100561.91;688134;28;1409;-79
2022/04/13 01:01:29;;;;;;;7.68;5.65;;;;;;;14.43;50.98;100562.75;687705;28;1376;-80
2022/04/13 01:01:51;;;;;;;7.67;5.40;;;;;;;14.46;51.01;100561.91;691874;28;1541;-79
2022/04/13 01:02:12;;;;;;;7.20;5.60;;;;;;;14.47;51.19;100564.53;691741;28;1171;-80
2022/04/13 01:02:36;;;;;;;6.40;5.18;;;;;;;14.45;51.25;100560.13;693036;28;1311;-80
2022/04/13 01:03:08;;;;;;;6.35;5.00;;;;;;;14.46;51.03;100562.78;690475;28;778;-79
2022/04/13 01:03:30;;;;;;;9.20;4.80;;;;;;;14.53;50.91;100574.22;687271;28;2038;-79
2022/04/13 01:03:52;;;;;;;8.63;4.72;;;;;;;14.52;51.05;100575.94;695833;28;839;-80
2022/04/13 01:04:13;;;;;;;6.55;4.78;;;;;;;14.47;51.09;100561.03;691545;28;1229;-79
2022/04/13 01:04:53;;;;;;;6.35;4.80;;;;;;;14.53;51.07;100575.06;687549;28;1719;-79
2022/04/13 01:05:15;;;;;;;6.78;5.00;;;;;;;14.50;50.90;100572.44;690568;28;1553;-79
2022/04/13 01:05:36;;;;;;;7.10;4.85;;;;;;;14.49;51.24;100573.31;688154;28;1668;-80
2022/04/13 01:05:56;;;;;;;6.65;4.93;;;;;;;14.52;50.86;100572.47;690239;28;1365;-79
2022/04/13 01:06:23;;;;;;;5.97;5.30;;;;;;;14.49;50.84;100568.06;687659;28;1256;-79
2022/04/13 01:06:44;;;;;;;6.10;5.20;;;;;;;14.46;51.07;100562.78;687806;28;1679;-79
2022/04/13 01:07:09;;;;;;;6.63;5.10;;;;;;;14.55;51.12;100571.59;690526;28;1257;-79
2022/04/13 01:07:30;;;;;;;6.25;5.00;;;;;;;14.53;50.87;100575.06;690217;28;1774;-79
2022/04/13 01:07:53;;;;;;;7.20;5.15;;;;;;;14.47;50.92;100569.78;690612;28;842;-79
2022/04/13 01:08:15;;;;;;;6.57;4.93;;;;;;;14.46;50.82;100562.78;684908;28;1335;-80
2022/04/13 01:08:36;;;;;;;7.60;5.00;;;;;;;14.52;50.86;100570.69;687619;28;1177;-80
2022/04/13 01:08:58;;;;;;;6.72;4.90;;;;;;;14.51;50.87;100566.31;692415;28;1559;-79
2022/04/13 01:09:19;;;;;;;6.68;5.00;;;;;;;14.52;51.17;100567.22;690126;28;1220;-79
2022/04/13 01:09:40;;;;;;;6.60;4.82;;;;;;;14.50;51.14;100566.31;687043;28;1382;-80
2022/04/13 01:10:05;;;;;;;7.40;5.05;;;;;;;14.52;50.93;100569.84;684981;28;1343;-80
2022/04/13 01:10:27;;;;;;;6.72;5.00;;;;;;;14.54;50.99;100573.34;687704;28;980;-79
2022/04/13 01:10:49;;;;;;;7.30;5.35;;;;;;;14.58;50.96;100577.78;684821;28;1581;-80
2022/04/13 01:11:14;;;;;;;8.43;5.55;;;;;;;14.52;51.07;100564.59;687375;28;1242;-79
2022/04/13 01:11:34;;;;;;;8.68;5.43;;;;;;;14.54;51.28;100578.59;687501;28;1462;-79
2022/04/13 01:11:55;;;;;;;7.75;5.38;;;;;;;14.52;51.09;100573.31;693068;28;1183;-79
2022/04/13 01:12:16;;;;;;;8.07;5.20;;;;;;;14.59;50.87;100584.78;691951;28;1445;-79
2022/04/13 01:12:36;;;;;;;6.77;5.20;;;;;;;14.53;50.95;100567.19;687715;28;1174;-80
2022/04/13 01:12:57;;;;;;;6.40;5.03;;;;;;;14.54;50.97;100573.34;684969;28;1293;-80
2022/04/13 01:13:17;;;;;;;6.03;4.70;;;;;;;14.59;50.96;100582.16;686918;28;1290;-79
2022/04/13 01:13:39;;;;;;;6.70;5.10;;;;;;;14.59;50.92;100578.63;690286;28;1359;-80
2022/04/13 01:14:00;;;;;;;7.70;5.20;;;;;;;14.66;50.70;100586.59;687810;28;790;-79
2022/04/13 01:14:20;;;;;;;12.02;5.20;;;;;;;14.66;50.68;100575.19;692640;28;1237;-79
2022/04/13 01:14:41;;;;;;;12.03;4.90;;;;;;;14.68;50.54;100576.06;691877;28;1683;-79
2022/04/13 01:15:04;;;;;;;11.95;5.13;;;;;;;14.74;50.65;100584.00;690415;28;1039;-79
2022/04/13 01:15:24;;;;;;;7.10;5.30;;;;;;;14.75;50.49;100582.28;687584;28;1366;-79
2022/04/13 01:15:45;;;;;;;6.18;5.25;;;;;;;14.77;50.35;100588.41;692107;28;1436;-80
2022/04/13 01:16:06;;;;;;;5.60;4.93;;;;;;;14.77;50.24;100577.91;688078;28;1320;-80
2022/04/13 01:16:27;;;;;;;6.15;4.85;;;;;;;14.81;50.30;100587.53;693060;28;866;-79
2022/04/13 01:16:48;;;;;;;7.00;4.60;;;;;;;14.73;50.34;100574.38;690228;28;1397;-79
2022/04/13 01:17:08;;;;;;;7.10;4.50;;;;;;;14.76;50.50;100574.38;694937;28;1237;-79
2022/04/13 01:17:29;;;;;;;6.70;4.60;;;;;;;14.80;50.41;100583.16;684909;28;1942;-79
2022/04/13 01:17:49;;;;;;;7.80;5.18;;;;;;;14.74;50.53;100573.50;689588;28;1651;-80
2022/04/13 01:18:11;;;;;;;7.67;5.30;;;;;;;14.76;50.27;100570.91;692417;28;1365;-79
2022/04/13 01:18:33;;;;;;;8.35;5.10;;;;;;;14.83;50.45;100582.31;684865;28;1042;-78
2022/04/13 01:18:55;;;;;;;6.82;4.80;;;;;;;14.78;50.38;100577.91;689398;28;1348;-79
2022/04/13 01:19:17;;;;;;;6.47;4.60;;;;;;;14.76;50.19;100574.38;687215;28;1470;-79
2022/04/13 01:19:39;;;;;;;6.15;4.60;;;;;;;14.83;50.25;100590.19;687479;28;1758;-79
2022/04/13 01:20:01;;;;;;;6.53;4.68;;;;;;;14.79;50.52;100573.53;687707;28;1426;-79
2022/04/13 01:20:23;;;;;;;7.50;4.93;;;;;;;14.84;50.70;100584.06;684683;28;1249;-80
2022/04/13 01:20:54;;;;;;;7.43;4.93;;;;;;;14.84;50.40;100578.81;681431;29;1207;-80
2022/04/13 01:21:17;;;;;;;7.15;5.00;;;;;;;14.85;50.49;100588.44;689071;28;1083;-79
2022/04/13 01:21:47;;;;;;;6.75;4.82;;;;;;;14.83;50.49;100584.94;690342;28;1253;-79
2022/04/13 01:22:21;;;;;;;6.45;4.90;;;;;;;14.83;50.42;100584.94;684500;28;1312;-79
2022/04/13 01:22:44;;;;;;;6.57;5.00;;;;;;;14.77;50.67;100572.66;690411;28;806;-78
2022/04/13 01:23:06;;;;;;;6.10;5.13;;;;;;;14.80;50.80;100576.19;690263;28;1363;-79
2022/04/13 01:23:27;;;;;;;6.32;5.30;;;;;;;14.79;50.57;100577.06;693093;28;1522;-79
2022/04/13 01:23:50;;;;;;;6.28;4.97;;;;;;;14.80;50.56;100577.91;686129;28;1371;-79
2022/04/13 01:24:11;;;;;;;7.60;4.90;;;;;;;14.81;50.51;100584.91;685991;28;1214;-79
2022/04/13 01:24:32;;;;;;;7.40;4.90;;;;;;;14.81;50.42;100579.66;684844;28;1099;-79
2022/04/13 01:24:53;;;;;;;6.90;4.90;;;;;;;14.86;50.58;100592.88;682420;29;1356;-79
2022/04/13 01:25:14;;;;;;;6.50;4.70;;;;;;;14.82;50.43;100591.97;685215;28;1322;-79
2022/04/13 01:25:34;;;;;;;6.63;4.60;;;;;;;14.85;50.64;100591.06;687754;28;969;-79
2022/04/13 01:25:55;;;;;;;6.50;4.80;;;;;;;14.86;50.51;100593.72;690479;28;760;-79
2022/04/13 01:26:17;;;;;;;5.80;4.90;;;;;;;14.84;50.54;100590.22;686826;28;1136;-80
2022/04/13 01:26:37;;;;;;;6.35;4.90;;;;;;;14.80;50.46;100591.94;690450;28;878;-79
2022/04/13 01:26:58;;;;;;;6.67;4.70;;;;;;;14.80;50.60;100589.31;689820;28;1261;-79
2022/04/13 01:27:19;;;;;;;7.07;4.95;;;;;;;14.80;50.56;100591.94;687776;28;1246;-79
2022/04/13 01:27:39;;;;;;;5.72;4.93;;;;;;;14.83;50.47;100592.81;687582;28;1186;-79
2022/04/13 01:28:00;;;;;;;5.73;5.13;;;;;;;14.82;50.44;100593.69;687738;28;1156;-79
2022/04/13 01:28:22;;;;;;;6.32;5.07;;;;;;;14.85;50.33;100593.69;689920;28;1200;-79
2022/04/13 01:28:42;;;;;;;6.88;5.18;;;;;;;14.75;50.65;100580.50;690173;28;1455;-79
2022/04/13 01:29:04;;;;;;;6.17;4.90;;;;;;;14.73;50.48;100577.00;694983;28;2475;-79
2022/04/13 01:29:25;;;;;;;6.68;4.50;;;;;;;14.78;50.36;100587.53;686703;28;1387;-79
2022/04/13 01:29:48;;;;;;;7.47;4.40;;;;;;;14.82;50.57;100591.06;689842;28;1164;-80
2022/04/13 01:30:10;;;;;;;8.57;4.88;;;;;;;14.77;50.19;100584.00;691313;28;1469;-79
2022/04/13 01:30:30;;;;;;;9.52;5.22;;;;;;;14.87;50.45;100570.97;695779;28;929;-80
2022/04/13 01:30:51;;;;;;;8.73;5.45;;;;;;;14.88;50.00;100588.50;693032;28;1180;-79
2022/04/13 01:31:12;;;;;;;10.00;5.63;;;;;;;14.88;50.19;100599.00;689069;28;1529;-80
2022/04/13 01:31:33;;;;;;;7.60;5.43;;;;;;;15.09;50.22;100600.88;692912;28;1619;-80
2022/04/13 01:31:55;;;;;;;7.90;5.45;;;;;;;14.92;50.32;100585.00;690233;28;1753;-79
2022/04/13 01:32:15;;;;;;;6.38;5.20;;;;;;;15.11;49.79;100587.78;690026;28;1537;-79
2022/04/13 01:32:36;;;;;;;6.32;5.20;;;;;;;14.89;50.38;100583.22;695092;28;1779;-79
2022/04/13 01:32:57;;;;;;;6.40;5.30;;;;;;;14.86;50.43;100585.84;693055;28;1452;-79
2022/04/13 01:33:17;;;;;;;6.40;5.28;;;;;;;14.88;50.44;100599.00;687400;28;1273;-79
2022/04/13 01:33:40;;;;;;;6.85;5.30;;;;;;;14.87;50.71;100594.63;687640;28;1366;-79
2022/04/13 01:34:02;;;;;;;6.22;5.00;;;;;;;14.86;50.72;100598.13;687602;28;1126;-79
2022/04/13 01:34:22;;;;;;;6.45;5.00;;;;;;;14.82;50.63;100593.69;684219;28;1222;-80
2022/04/13 01:34:47;;;;;;;7.88;4.90;;;;;;;14.78;50.74;100585.81;687737;28;745;-79
2022/04/13 01:35:08;;;;;;;7.47;4.90;;;;;;;14.78;50.64;100593.69;692485;28;1113;-80
2022/04/13 01:35:29;;;;;;;6.53;4.63;;;;;;;14.76;50.78;100599.78;693058;28;961;-79
2022/04/13 01:35:50;;;;;;;7.25;4.97;;;;;;;14.73;50.94;100595.38;689906;28;1757;-79
2022/04/13 01:36:11;;;;;;;7.20;5.00;;;;;;;14.80;50.94;100601.56;692193;28;1197;-79
2022/04/13 01:36:35;;;;;;;9.15;5.20;;;;;;;14.72;50.98;100584.84;692961;28;1142;-79
2022/04/13 01:36:56;;;;;;;7.30;5.07;;;;;;;14.76;50.99;100592.78;682365;29;1285;-79
2022/04/13 01:37:18;;;;;;;9.10;5.30;;;;;;;14.80;51.04;100605.06;684114;28;1483;-79
2022/04/13 01:37:38;;;;;;;7.90;5.50;;;;;;;14.77;51.04;100593.66;684878;28;1250;-80
2022/04/13 01:37:59;;;;;;;7.43;5.50;;;;;;;14.83;51.09;100609.47;690249;28;815;-79
2022/04/13 01:38:20;;;;;;;5.82;5.13;;;;;;;14.77;51.05;100598.91;690576;28;1221;-79
2022/04/13 01:38:41;;;;;;;5.93;4.80;;;;;;;14.78;51.30;100591.06;690328;28;823;-79
2022/04/13 01:39:03;;;;;;;7.13;4.70;;;;;;;14.86;51.10;100603.38;695762;28;1147;-78
2022/04/13 01:39:24;;;;;;;7.60;4.90;;;;;;;14.77;51.32;100589.28;692854;28;1437;-79
2022/04/13 01:39:44;;;;;;;8.37;5.17;;;;;;;14.79;51.22;100590.19;690116;28;1535;-79
2022/04/13 01:40:05;;;;;;;7.47;5.18;;;;;;;14.79;51.23;100598.06;695709;28;1228;-79
2022/04/13 01:40:26;;;;;;;6.15;4.80;;;;;;;14.78;51.18;100591.06;687506;28;1088;-79
2022/04/13 01:40:48;;;;;;;7.10;4.97;;;;;;;14.78;51.60;100584.91;689680;28;1271;-79
2022/04/13 01:41:09;;;;;;;7.93;4.70;;;;;;;14.77;51.19;100588.41;685535;28;1239;-80
2022/04/13 01:41:29;;;;;;;10.37;4.83;;;;;;;14.82;51.30;100602.47;690883;28;1244;-79
2022/04/13 01:41:50;;;;;;;9.38;4.85;;;;;;;14.76;51.50;100589.28;690272;28;1224;-79
2022/04/13 01:42:11;;;;;;;7.43;5.00;;;;;;;14.84;51.25;100605.97;692856;28;1244;-79
2022/04/13 01:42:32;;;;;;;6.78;5.35;;;;;;;14.78;51.42;100601.56;690189;28;1304;-79
2022/04/13 01:42:52;;;;;;;7.07;5.25;;;;;;;14.78;51.33;100592.78;690234;28;1219;-79
2022/04/13 01:43:25;;;;;;;7.47;5.30;;;;;;;14.82;51.22;100605.09;694503;28;972;-79
2022/04/13 01:43:46;;;;;;;7.20;5.18;;;;;;;14.75;51.31;100596.28;689952;28;854;-79
2022/04/13 01:44:06;;;;;;;7.00;5.00;;;;;;;14.82;51.30;100602.47;690192;28;1303;-79
2022/04/13 01:44:27;;;;;;;7.85;5.00;;;;;;;14.80;51.68;100599.81;690317;28;1158;-79
2022/04/13 01:44:48;;;;;;;9.75;4.90;;;;;;;14.78;51.46;100595.41;694156;28;1194;-79
2022/04/13 01:45:09;;;;;;;10.27;5.00;;;;;;;14.78;51.20;100595.41;691350;28;1109;-79